Time;durP1;ratioP1;P1;durP2;ratioP2;P2;SDS_P1;SDS_P2;PMS_P1;PMS_P2;Temp;Humidity;BMP_temperature;BMP_pressure;BME280_temperature;BME280_humidity;BME280_pressure;Samples;Min_cycle;Max_cycle;Signal;HPM_P1;HPM_P2
2022/10/12 00:02:55;;;;;;;38.00;25.27;;;;;;;3.56;73.92;101540.38;3617884;77;21091;-90
2022/10/12 00:07:46;;;;;;;34.48;22.27;;;;;;;3.49;73.88;101540.45;3625809;77;22362;-90
2022/10/12 00:12:38;;;;;;;31.82;20.90;;;;;;;3.43;73.84;101538.78;3549556;77;20958;-91
2022/10/12 00:17:29;;;;;;;31.30;21.65;;;;;;;3.34;73.79;101539.13;3560735;77;21235;-91
2022/10/12 00:22:20;;;;;;;29.15;20.82;;;;;;;3.29;73.82;101537.98;3603403;78;20947;-91
2022/10/12 00:27:12;;;;;;;31.30;19.87;;;;;;;3.20;73.78;101533.55;3540171;78;21017;-91
2022/10/12 00:32:03;;;;;;;31.17;21.02;;;;;;;3.15;73.97;101534.96;3555084;78;21480;-91
2022/10/12 00:36:56;;;;;;;32.63;21.62;;;;;;;3.11;74.02;101553.57;3601050;78;21029;-90
2022/10/12 00:41:47;;;;;;;32.73;21.80;;;;;;;3.05;74.10;101544.69;3535439;78;20981;-90
2022/10/12 00:46:45;;;;;;;29.50;20.82;;;;;;;3.04;74.11;101549.73;3509712;77;20923;-90
2022/10/12 00:51:39;;;;;;;32.70;20.57;;;;;;;3.01;74.15;101552.14;3549324;78;22967;-91
2022/10/12 00:56:34;;;;;;;27.30;18.40;;;;;;;2.97;74.30;101547.21;3542313;77;20954;-91
2022/10/12 01:01:32;;;;;;;26.00;18.85;;;;;;;2.94;74.22;101552.56;3559589;78;20978;-91
2022/10/12 01:06:23;;;;;;;26.45;18.57;;;;;;;2.90;74.18;101554.05;3624403;78;20947;-90
2022/10/12 01:11:14;;;;;;;28.47;19.15;;;;;;;2.84;74.20;101547.23;3622135;78;20997;-91
2022/10/12 01:16:17;;;;;;;28.20;19.67;;;;;;;2.78;74.18;101554.58;3606478;77;21276;-91
2022/10/12 01:21:21;;;;;;;28.20;18.00;;;;;;;2.73;74.32;101560.70;3597326;78;20986;-90
2022/10/12 01:26:57;;;;;;;26.27;18.30;;;;;;;2.70;74.45;101553.20;3551650;78;21492;-91
2022/10/12 01:31:54;;;;;;;23.65;16.52;;;;;;;2.66;74.46;101562.02;3570080;77;21429;-90
2022/10/12 01:37:06;;;;;;;21.70;15.58;;;;;;;2.58;74.27;101564.90;3588186;77;21444;-90
2022/10/12 01:42:06;;;;;;;30.62;18.37;;;;;;;2.55;74.20;101568.14;3600213;77;21076;-90
2022/10/12 01:46:57;;;;;;;28.27;18.95;;;;;;;2.47;74.13;101579.22;3580975;77;21560;-90
2022/10/12 01:52:03;;;;;;;28.45;18.15;;;;;;;2.40;74.37;101572.33;3550614;77;20899;-90
2022/10/12 01:57:09;;;;;;;28.75;17.77;;;;;;;2.37;74.29;101582.39;3564709;77;21055;-90
2022/10/12 02:02:28;;;;;;;25.02;17.77;;;;;;;2.27;74.02;101586.94;3578921;77;20981;-90
2022/10/12 02:07:28;;;;;;;29.23;19.27;;;;;;;2.21;74.16;101582.67;3569917;77;20966;-90
2022/10/12 02:12:23;;;;;;;31.68;19.70;;;;;;;2.17;74.37;101586.24;3587483;77;21061;-90
2022/10/12 02:17:18;;;;;;;29.57;19.32;;;;;;;2.13;74.47;101589.00;3624893;77;21540;-90
2022/10/12 02:22:12;;;;;;;29.18;20.65;;;;;;;2.10;74.51;101590.08;3606545;77;21041;-90
2022/10/12 02:27:06;;;;;;;23.65;17.27;;;;;;;2.06;74.64;101591.96;3557912;77;21060;-90
2022/10/12 02:32:09;;;;;;;25.40;18.75;;;;;;;2.00;74.61;101589.86;3607890;77;22370;-90
2022/10/12 02:37:15;;;;;;;30.80;19.12;;;;;;;1.97;74.57;101588.40;3590951;77;21049;-91
2022/10/12 02:42:11;;;;;;;28.17;19.35;;;;;;;1.93;74.81;101590.64;3516693;80;21468;-90
2022/10/12 02:47:05;;;;;;;30.60;20.20;;;;;;;1.89;74.76;101595.56;3526089;80;21462;-90
2022/10/12 02:51:58;;;;;;;30.20;19.27;;;;;;;1.87;74.73;101594.58;3506396;80;20987;-91
2022/10/12 02:56:49;;;;;;;27.10;19.65;;;;;;;1.86;74.77;101600.52;3447300;80;21623;-90
2022/10/12 03:01:41;;;;;;;25.52;18.95;;;;;;;1.83;74.89;101595.17;3469294;80;21039;-90
2022/10/12 03:06:32;;;;;;;25.32;18.75;;;;;;;1.80;74.88;101594.96;3491655;80;21015;-90
2022/10/12 03:11:24;;;;;;;24.25;17.42;;;;;;;1.75;74.98;101591.20;3470832;80;21030;-90
2022/10/12 03:16:15;;;;;;;26.73;18.70;;;;;;;1.71;75.05;101586.27;3460546;78;21029;-90
2022/10/12 03:21:06;;;;;;;32.35;19.42;;;;;;;1.66;74.83;101581.62;3582722;77;21972;-90
2022/10/12 03:25:58;;;;;;;28.62;18.15;;;;;;;1.62;74.82;101587.34;3532113;77;20986;-90
2022/10/12 03:30:49;;;;;;;27.27;18.82;;;;;;;1.57;74.94;101584.85;3563380;77;20982;-90
2022/10/12 03:35:44;;;;;;;31.68;20.68;;;;;;;1.57;75.17;101593.42;3528604;77;20979;-91
2022/10/12 03:40:37;;;;;;;28.80;19.48;;;;;;;1.55;75.17;101596.68;3599738;77;20971;-91
2022/10/12 03:45:29;;;;;;;25.43;18.48;;;;;;;1.53;75.33;101594.89;3545373;77;21268;-91
2022/10/12 03:50:20;;;;;;;28.20;18.65;;;;;;;1.51;75.08;101593.91;3582879;77;21034;-91
2022/10/12 03:55:12;;;;;;;28.95;20.12;;;;;;;1.48;75.30;101595.38;3532575;77;21000;-91
2022/10/12 04:00:04;;;;;;;29.05;20.17;;;;;;;1.47;75.47;101598.34;3579516;77;20946;-91
2022/10/12 04:04:58;;;;;;;23.73;17.42;;;;;;;1.46;75.34;101604.63;3565240;77;21021;-91
2022/10/12 04:09:49;;;;;;;30.25;20.80;;;;;;;1.43;75.45;101605.33;3606998;78;21140;-90
2022/10/12 04:14:41;;;;;;;32.17;20.68;;;;;;;1.42;75.57;101605.22;3588583;77;21014;-90
2022/10/12 04:19:32;;;;;;;29.63;21.30;;;;;;;1.40;75.53;101599.98;3558490;77;21040;-91
2022/10/12 04:24:24;;;;;;;30.25;19.95;;;;;;;1.37;75.45;101602.33;3572737;77;20979;-93
2022/10/12 04:29:15;;;;;;;32.55;22.80;;;;;;;1.32;75.45;101597.28;3582075;77;20923;-91
2022/10/12 04:34:08;;;;;;;31.68;22.22;;;;;;;1.25;75.43;101604.05;3567523;77;21931;-92
2022/10/12 04:38:59;;;;;;;30.65;21.30;;;;;;;1.24;75.69;101606.13;3550000;77;21010;-92
2022/10/12 04:43:53;;;;;;;28.10;20.50;;;;;;;1.22;75.55;101607.70;3582742;77;20997;-92
2022/10/12 04:48:44;;;;;;;35.52;23.87;;;;;;;1.19;75.68;101611.33;3614231;77;21518;-92
2022/10/12 04:53:36;;;;;;;34.80;22.35;;;;;;;1.18;75.75;101610.45;3575953;77;21034;-92
2022/10/12 04:58:27;;;;;;;32.08;22.75;;;;;;;1.14;75.69;101610.63;3543494;77;21350;-91
2022/10/12 05:03:18;;;;;;;33.30;20.55;;;;;;;1.12;75.88;101612.17;3608087;77;21420;-93
2022/10/12 05:08:12;;;;;;;32.98;22.22;;;;;;;1.11;75.74;101611.69;3586381;78;21003;-92
2022/10/12 05:13:03;;;;;;;35.88;23.25;;;;;;;1.10;75.96;101625.27;3562189;77;20979;-94
2022/10/12 05:17:55;;;;;;;34.08;23.50;;;;;;;1.14;76.22;101637.52;3592976;78;21538;-93
2022/10/12 05:22:46;;;;;;;43.48;24.52;;;;;;;1.17;76.14;101632.98;3527003;78;21539;-93
2022/10/12 05:27:38;;;;;;;35.85;25.57;;;;;;;1.22;76.31;101634.61;3565137;77;21049;-92
2022/10/12 05:32:29;;;;;;;31.75;21.37;;;;;;;1.26;76.33;101642.99;3595226;77;21006;-92
2022/10/12 05:37:21;;;;;;;33.08;23.02;;;;;;;1.32;76.51;101642.12;3618754;77;21069;-92
2022/10/12 05:42:13;;;;;;;36.85;25.52;;;;;;;1.36;76.57;101640.66;3559130;77;21228;-91
2022/10/12 05:47:04;;;;;;;36.95;25.68;;;;;;;1.40;76.63;101643.55;3553135;77;21237;-92
2022/10/12 05:51:56;;;;;;;46.58;29.55;;;;;;;1.45;76.71;101651.17;3590140;78;20923;-91
2022/10/12 05:56:47;;;;;;;40.25;28.55;;;;;;;1.51;76.85;101651.57;3568893;77;21118;-93
2022/10/12 06:01:38;;;;;;;38.40;26.93;;;;;;;1.60;76.99;101662.85;3549897;77;21037;-94
2022/10/12 06:06:30;;;;;;;40.95;29.23;;;;;;;1.69;77.07;101658.75;3582350;78;20939;-94
2022/10/12 06:11:21;;;;;;;39.92;28.70;;;;;;;1.78;77.11;101661.92;3576321;77;21115;-89
2022/10/12 06:16:12;;;;;;;38.58;27.73;;;;;;;1.88;77.18;101664.73;3598904;77;20963;-86
2022/10/12 06:21:04;;;;;;;37.45;26.68;;;;;;;1.94;77.24;101660.41;3552862;77;20946;-83
2022/10/12 06:25:56;;;;;;;44.50;28.55;;;;;;;2.03;77.37;101658.05;3538971;77;21007;-87
2022/10/12 06:30:54;;;;;;;40.83;30.60;;;;;;;2.13;77.42;101668.54;3558510;77;20991;-84
2022/10/12 06:35:46;;;;;;;41.13;29.37;;;;;;;2.24;77.40;101668.84;3590108;77;22734;-88
2022/10/12 06:40:38;;;;;;;39.78;29.95;;;;;;;2.56;76.98;101673.91;3585262;77;21999;-94
2022/10/12 06:45:29;;;;;;;35.00;27.27;;;;;;;2.69;77.19;101669.16;3634397;77;20954;-92
2022/10/12 06:50:20;;;;;;;36.40;27.77;;;;;;;3.43;76.31;101669.90;3572688;77;21085;-94
2022/10/12 06:55:12;;;;;;;38.05;26.23;;;;;;;3.38;76.67;101673.49;3537050;77;20994;-94
2022/10/12 07:00:05;;;;;;;37.78;28.38;;;;;;;3.32;76.99;101677.36;3596394;77;21339;-92
2022/10/12 07:04:57;;;;;;;41.18;25.85;;;;;;;3.33;77.31;101672.32;3607766;77;20985;-93
2022/10/12 07:09:48;;;;;;;38.80;27.48;;;;;;;3.39;77.65;101671.39;3581662;77;21503;-91
2022/10/12 07:14:39;;;;;;;38.05;27.52;;;;;;;3.50;77.98;101679.77;3599189;77;20974;-92
2022/10/12 07:19:30;;;;;;;68.87;30.92;;;;;;;3.61;78.27;101677.84;3555462;77;21013;-92
2022/10/12 07:24:21;;;;;;;34.95;27.48;;;;;;;3.75;78.63;101676.98;3532598;77;21377;-92
2022/10/12 07:29:12;;;;;;;36.47;27.57;;;;;;;3.93;78.85;101687.89;3605259;77;20919;-92
2022/10/12 07:34:03;;;;;;;33.48;26.75;;;;;;;4.18;79.17;101685.08;3570357;77;21727;-92
2022/10/12 07:38:55;;;;;;;35.05;23.30;;;;;;;4.73;78.84;101684.78;3551255;77;21010;-92
2022/10/12 07:43:46;;;;;;;34.38;22.48;;;;;;;7.11;76.03;101667.69;3546462;77;21484;-92
2022/10/12 07:48:40;;;;;;;26.17;18.25;;;;;;;7.31;76.37;101658.66;3567775;78;21049;-92
2022/10/12 07:53:33;;;;;;;26.30;18.70;;;;;;;7.31;76.37;101658.66;3598939;77;21045;-90
2022/10/12 07:58:24;;;;;;;32.48;17.62;;;;;;;7.30;77.18;101654.29;3547279;77;21077;-87
2022/10/12 08:03:15;;;;;;;28.00;16.97;;;;;;;7.96;76.91;101656.80;3596976;77;20951;-92
2022/10/12 08:08:07;;;;;;;25.23;15.75;;;;;;;8.46;76.96;101649.78;3537810;77;20988;-91
2022/10/12 08:12:59;;;;;;;22.48;15.78;;;;;;;8.42;76.71;101663.41;3553760;77;21504;-90
2022/10/12 08:17:50;;;;;;;25.48;15.58;;;;;;;8.61;76.57;101656.89;3621439;77;20959;-88
2022/10/12 08:22:41;;;;;;;21.87;14.47;;;;;;;8.54;76.25;101657.05;3584134;78;21045;-88
2022/10/12 08:27:33;;;;;;;20.68;14.50;;;;;;;8.57;76.53;101654.59;3598607;77;21014;-88
2022/10/12 08:32:24;;;;;;;23.22;14.73;;;;;;;9.15;75.81;101649.47;3591764;77;20963;-90
2022/10/12 08:37:15;;;;;;;26.25;14.58;;;;;;;9.15;75.81;101649.47;3527068;77;21173;-89
2022/10/12 08:42:27;;;;;;;18.25;12.03;;;;;;;9.40;75.66;101645.20;3565275;77;20998;-90
2022/10/12 08:47:30;;;;;;;24.25;13.75;;;;;;;9.82;75.05;101651.86;3598089;77;20997;-90
2022/10/12 08:52:32;;;;;;;19.55;13.28;;;;;;;9.97;74.22;101647.20;3598779;77;20968;-90
2022/10/12 08:57:23;;;;;;;20.82;13.72;;;;;;;9.98;74.61;101649.38;3584280;78;20950;-90
2022/10/12 09:02:50;;;;;;;22.77;13.03;;;;;;;10.17;74.21;101653.50;3570494;78;21207;-92
2022/10/12 09:08:02;;;;;;;19.55;13.03;;;;;;;10.37;73.78;101658.09;3596647;77;21420;-90
2022/10/12 09:13:05;;;;;;;21.07;12.93;;;;;;;10.52;73.85;101656.00;3593327;77;20891;-89
2022/10/12 09:17:59;;;;;;;20.08;10.75;;;;;;;11.93;71.50;101649.26;3481989;80;21517;-93
2022/10/12 09:23:01;;;;;;;19.45;10.08;;;;;;;12.52;70.74;101639.46;3412767;80;21549;-93
2022/10/12 09:28:00;;;;;;;16.45;8.73;;;;;;;13.04;68.92;101636.24;3440556;80;21756;-89
2022/10/12 09:33:13;;;;;;;11.30;8.78;;;;;;;12.98;69.17;101630.47;3448120;80;21015;-92
2022/10/12 09:38:08;;;;;;;13.13;9.63;;;;;;;13.33;68.19;101631.25;3479602;80;20978;-89
2022/10/12 09:43:01;;;;;;;14.63;8.43;;;;;;;13.72;67.04;101621.55;3461067;80;21561;-84
2022/10/12 09:48:22;;;;;;;17.27;9.23;;;;;;;13.66;67.09;101631.44;3447224;80;21774;-84
2022/10/12 09:53:46;;;;;;;17.45;8.28;;;;;;;14.43;65.96;101631.48;3495420;77;21522;-85
2022/10/12 09:58:54;;;;;;;13.05;5.72;;;;;;;15.92;62.41;101629.91;3597522;77;20950;-89
2022/10/12 10:03:51;;;;;;;12.60;5.78;;;;;;;15.71;63.38;101630.98;3589555;77;20989;-88
2022/10/12 10:08:44;;;;;;;11.65;5.58;;;;;;;15.87;62.42;101631.61;3580799;77;21635;-90
2022/10/12 10:13:37;;;;;;;12.80;4.80;;;;;;;15.94;62.61;101628.62;3544976;77;21060;-90
2022/10/12 10:18:32;;;;;;;8.30;4.42;;;;;;;16.28;61.29;101619.28;3564797;77;20990;-85
2022/10/12 10:23:30;;;;;;;11.85;3.95;;;;;;;16.09;61.06;101619.55;3563583;77;21103;-90
2022/10/12 10:28:26;;;;;;;10.60;4.28;;;;;;;15.63;61.06;101624.32;3603760;78;20946;-90
2022/10/12 10:33:18;;;;;;;8.63;4.03;;;;;;;15.48;60.94;101621.11;3565383;77;21013;-93
2022/10/12 10:38:14;;;;;;;14.07;3.30;;;;;;;15.00;61.07;101615.73;3541176;78;21074;-93
2022/10/12 10:43:11;;;;;;;5.12;2.55;;;;;;;14.73;61.09;101611.00;3603585;77;21833;-93
2022/10/12 10:48:15;;;;;;;9.53;2.10;;;;;;;14.20;61.23;101610.59;3623798;77;20966;-89
2022/10/12 10:53:20;;;;;;;9.95;4.00;;;;;;;13.71;61.53;101613.24;3590849;77;21091;-91
2022/10/12 10:58:23;;;;;;;7.03;2.20;;;;;;;13.62;61.55;101607.42;3634237;77;21388;-92
2022/10/12 11:03:22;;;;;;;4.80;2.00;;;;;;;13.79;61.67;101601.61;3617851;77;20962;-88
2022/10/12 11:08:21;;;;;;;6.25;2.10;;;;;;;13.42;61.95;101607.48;3594217;77;21112;-86
2022/10/12 11:13:31;;;;;;;8.33;2.80;;;;;;;13.87;61.41;101593.49;3635295;77;20974;-92
2022/10/12 11:18:48;;;;;;;8.85;2.90;;;;;;;13.88;61.12;101595.27;3575632;78;20960;-93
2022/10/12 11:24:00;;;;;;;6.63;2.57;;;;;;;14.72;59.69;101591.81;3587350;77;21010;-96
2022/10/12 11:28:56;;;;;;;6.60;2.80;;;;;;;15.14;58.95;101590.59;3605965;77;21041;-95
2022/10/12 11:33:48;;;;;;;4.15;1.90;;;;;;;15.44;58.83;101586.58;3564678;77;21463;-94
2022/10/12 11:38:57;;;;;;;11.20;3.20;;;;;;;15.89;58.59;101581.80;3608924;77;20971;-96
2022/10/12 11:44:16;;;;;;;9.73;2.60;;;;;;;15.09;59.06;101572.63;3596680;77;20986;-92
2022/10/12 11:49:14;;;;;;;;;;;;;;;14.82;59.41;101571.86;3621493;77;20939;-91
2022/10/12 11:54:23;;;;;;;6.90;2.30;;;;;;;15.50;58.91;101565.66;3631830;77;20150;-93
2022/10/12 11:59:22;;;;;;;6.87;2.67;;;;;;;15.93;58.55;101559.97;3652097;77;21229;-95
2022/10/12 12:04:25;;;;;;;5.08;2.12;;;;;;;16.30;59.21;101559.81;3590528;77;21180;-92
2022/10/12 12:09:42;;;;;;;4.97;2.22;;;;;;;16.64;57.13;101555.22;3571163;78;21476;-92
2022/10/12 12:14:54;;;;;;;6.87;3.73;;;;;;;16.83;57.02;101555.78;3608534;77;21067;-92
2022/10/12 12:19:54;;;;;;;4.50;2.00;;;;;;;17.10;55.88;101553.70;3578086;77;21034;-89
2022/10/12 12:25:04;;;;;;;6.92;2.50;;;;;;;17.25;56.15;101559.87;3400625;80;23174;-88
2022/10/12 12:29:57;;;;;;;5.67;2.58;;;;;;;17.38;54.42;101556.38;3501828;80;21137;-86
2022/10/12 12:34:57;;;;;;;6.28;2.72;;;;;;;16.68;55.21;101567.03;3562351;77;21783;-86
2022/10/12 12:39:55;;;;;;;8.03;2.60;;;;;;;15.93;55.60;101559.53;3569498;77;20928;-86
2022/10/12 12:44:47;;;;;;;9.35;2.40;;;;;;;15.36;56.34;101565.95;3609030;77;20947;-88
2022/10/12 12:49:46;;;;;;;7.15;2.58;;;;;;;15.06;57.10;101564.76;3530262;78;21225;-86
2022/10/12 12:55:04;;;;;;;3.58;2.12;;;;;;;14.86;57.12;101561.45;3635199;77;21500;-86
2022/10/12 13:00:12;;;;;;;6.92;2.47;;;;;;;14.72;57.83;101559.50;3617875;77;20931;-89
2022/10/12 13:05:18;;;;;;;6.75;2.70;;;;;;;15.31;57.68;101550.20;3559304;77;21193;-92
2022/10/12 13:10:36;;;;;;;3.72;2.27;;;;;;;15.95;56.47;101546.02;3594030;77;21520;-89
2022/10/12 13:15:56;;;;;;;10.03;3.02;;;;;;;15.55;56.13;101556.10;3611413;77;22053;-90
2022/10/12 13:20:48;;;;;;;6.37;2.20;;;;;;;15.17;56.76;101553.97;3439934;81;20978;-87
2022/10/12 13:25:57;;;;;;;5.20;2.67;;;;;;;14.92;57.34;101562.40;3387636;81;21585;-90
2022/10/12 13:31:04;;;;;;;5.62;2.35;;;;;;;14.67;57.78;101558.14;3441784;81;21608;-92
2022/10/12 13:36:06;;;;;;;6.03;2.08;;;;;;;14.42;58.62;101553.84;3440119;81;20996;-90
2022/10/12 13:41:06;;;;;;;6.87;2.55;;;;;;;14.19;58.69;101553.48;3464969;81;21165;-90
2022/10/12 13:45:57;;;;;;;7.60;2.95;;;;;;;14.02;59.00;101558.47;3437741;81;21455;-89
2022/10/12 13:51:01;;;;;;;9.85;3.85;;;;;;;13.92;59.71;101557.86;3531172;77;20934;-93
2022/10/12 13:56:04;;;;;;;8.08;3.52;;;;;;;13.87;60.31;101558.20;3608486;77;21014;-92
2022/10/12 14:00:56;;;;;;;9.00;3.02;;;;;;;14.02;60.91;101553.23;3623784;77;20992;-91
2022/10/12 14:05:47;;;;;;;11.25;3.52;;;;;;;14.06;61.27;101552.42;3618353;77;21234;-90
2022/10/12 14:10:40;;;;;;;8.43;3.30;;;;;;;14.09;61.66;101552.48;3595722;77;20956;-89
2022/10/12 14:15:35;;;;;;;5.15;2.67;;;;;;;14.05;61.80;101546.73;3573121;77;21838;-89
2022/10/12 14:20:34;;;;;;;8.85;3.10;;;;;;;13.98;62.19;101552.72;3581871;77;21736;-93
2022/10/12 14:25:29;;;;;;;13.93;3.60;;;;;;;13.89;62.74;101546.91;3558286;78;21370;-94
2022/10/12 14:30:31;;;;;;;8.48;3.17;;;;;;;13.78;62.82;101547.59;3593876;77;21307;-93
2022/10/12 14:35:27;;;;;;;6.90;2.72;;;;;;;13.69;63.29;101554.84;3588348;77;21002;-91
2022/10/12 14:40:27;;;;;;;6.75;3.00;;;;;;;13.56;63.19;101547.22;3547308;78;21010;-91
2022/10/12 14:45:24;;;;;;;7.75;3.27;;;;;;;13.46;63.48;101543.55;3598732;77;20943;-89
2022/10/12 14:50:19;;;;;;;5.97;3.15;;;;;;;13.34;63.91;101551.16;3555934;78;21643;-92
2022/10/12 14:55:21;;;;;;;6.03;2.90;;;;;;;13.20;64.40;101553.48;3590801;78;22616;-89
2022/10/12 15:00:19;;;;;;;8.63;3.10;;;;;;;13.06;65.05;101558.87;3548441;77;21002;-92
2022/10/12 15:05:14;;;;;;;10.25;3.77;;;;;;;12.89;65.22;101547.62;3604874;77;20947;-90
2022/10/12 15:10:07;;;;;;;11.05;3.00;;;;;;;12.73;65.22;101552.08;3544065;78;20959;-91
2022/10/12 15:15:01;;;;;;;9.25;3.15;;;;;;;12.60;65.79;101552.23;3570059;77;21462;-91
2022/10/12 15:19:53;;;;;;;14.35;5.55;;;;;;;12.48;66.25;101548.92;3499899;80;21122;-91
2022/10/12 15:24:45;;;;;;;22.90;5.05;;;;;;;12.37;66.60;101554.33;3522229;80;20979;-87
2022/10/12 15:29:36;;;;;;;9.55;3.05;;;;;;;12.26;66.53;101554.08;3552491;80;21025;-87
2022/10/12 15:34:27;;;;;;;11.65;4.55;;;;;;;12.15;66.83;101550.34;3494543;80;21507;-86
2022/10/12 15:39:18;;;;;;;12.18;3.55;;;;;;;12.01;66.98;101550.00;3529796;79;20978;-86
2022/10/12 15:44:15;;;;;;;13.05;4.15;;;;;;;11.90;67.63;101555.36;3531219;80;22004;-86
2022/10/12 15:49:06;;;;;;;15.10;5.35;;;;;;;11.76;67.88;101557.17;3526149;79;21616;-86
2022/10/12 15:53:57;;;;;;;19.50;5.83;;;;;;;11.64;68.05;101562.06;3476207;80;21002;-86
2022/10/12 15:58:49;;;;;;;23.60;9.30;;;;;;;11.52;68.36;101551.32;3553288;79;20931;-86
2022/10/12 16:03:40;;;;;;;19.10;9.50;;;;;;;11.39;68.56;101558.83;3471141;79;21038;-86
2022/10/12 16:08:32;;;;;;;18.42;10.40;;;;;;;11.26;68.93;101555.41;3460307;80;22035;-86
2022/10/12 16:13:23;;;;;;;17.17;9.50;;;;;;;11.12;69.03;101565.86;3485399;80;20982;-90
2022/10/12 16:18:16;;;;;;;20.92;9.20;;;;;;;10.98;69.28;101559.86;3519768;77;35849;-91
2022/10/12 16:23:15;;;;;;;16.85;9.50;;;;;;;10.85;69.49;101562.50;3530596;78;21070;-91
2022/10/12 16:28:06;;;;;;;16.23;8.50;;;;;;;10.74;69.71;101564.34;3599756;77;21021;-92
2022/10/12 16:32:57;;;;;;;14.60;6.95;;;;;;;10.63;70.15;101564.02;3538228;78;21220;-92
2022/10/12 16:37:49;;;;;;;10.63;6.50;;;;;;;10.55;70.51;101557.69;3573249;77;21477;-92
2022/10/12 16:42:40;;;;;;;15.43;7.25;;;;;;;10.46;70.87;101555.29;3568323;78;20923;-92
2022/10/12 16:47:32;;;;;;;10.70;6.12;;;;;;;10.38;71.08;101564.98;3545464;78;20994;-91
2022/10/12 16:52:24;;;;;;;14.28;6.67;;;;;;;10.26;71.07;101565.01;3548911;78;20984;-91
2022/10/12 16:57:16;;;;;;;11.03;5.30;;;;;;;10.14;71.56;101565.94;3526259;78;21189;-92
2022/10/12 17:02:09;;;;;;;12.40;5.45;;;;;;;10.04;72.19;101563.88;3550818;78;21253;-91
2022/10/12 17:07:00;;;;;;;11.12;5.22;;;;;;;9.93;72.09;101565.69;3556207;77;20976;-91
2022/10/12 17:11:51;;;;;;;19.70;6.85;;;;;;;9.85;72.47;101567.13;3568309;77;20919;-92
2022/10/12 17:16:48;;;;;;;8.80;5.33;;;;;;;9.77;72.76;101566.02;3547970;77;21716;-90
2022/10/12 17:21:41;;;;;;;10.80;7.67;;;;;;;9.68;72.61;101565.70;3509499;77;21536;-91
2022/10/12 17:26:32;;;;;;;12.30;7.75;;;;;;;9.52;72.75;101565.17;3601657;77;21405;-92
2022/10/12 17:31:24;;;;;;;13.30;7.50;;;;;;;9.44;73.19;101569.20;3629400;77;20959;-91
2022/10/12 17:36:16;;;;;;;14.60;8.00;;;;;;;9.37;73.34;101572.40;3529406;77;21016;-92
2022/10/12 17:41:12;;;;;;;14.55;7.58;;;;;;;9.34;73.68;101569.72;3625723;77;21422;-90
2022/10/12 17:46:06;;;;;;;13.32;6.60;;;;;;;9.27;73.72;101578.99;3580027;77;21480;-90
2022/10/12 17:51:04;;;;;;;14.15;7.58;;;;;;;9.22;73.99;101574.47;3545938;77;21010;-89
2022/10/12 17:56:02;;;;;;;17.17;7.70;;;;;;;9.16;73.98;101576.01;3557290;77;20900;-90
2022/10/12 18:00:53;;;;;;;14.58;6.58;;;;;;;9.04;74.35;101563.88;3568262;77;20990;-90
2022/10/12 18:05:45;;;;;;;8.93;6.33;;;;;;;9.04;74.35;101563.88;3553093;77;21042;-90
2022/10/12 18:10:49;;;;;;;11.18;6.05;;;;;;;9.06;74.73;101568.70;3577537;77;21191;-90
2022/10/12 18:15:59;;;;;;;17.60;8.15;;;;;;;9.06;74.73;101568.70;3598129;77;20975;-90
2022/10/12 18:20:51;;;;;;;12.20;8.75;;;;;;;8.99;74.78;101568.44;3527020;77;20963;-90
2022/10/12 18:25:45;;;;;;;15.48;10.55;;;;;;;8.99;74.78;101568.44;3551863;77;21906;-89
2022/10/12 18:30:39;;;;;;;23.02;13.45;;;;;;;8.91;74.89;101570.75;3546622;79;21254;-90
2022/10/12 18:35:34;;;;;;;20.80;13.03;;;;;;;8.88;75.00;101562.84;3523907;79;21993;-89
2022/10/12 18:40:25;;;;;;;18.55;12.68;;;;;;;8.83;75.19;101566.98;3526181;79;22156;-90
2022/10/12 18:45:16;;;;;;;26.02;17.02;;;;;;;8.81;75.29;101568.63;3547755;79;21017;-90
2022/10/12 18:50:09;;;;;;;25.75;17.40;;;;;;;8.76;75.28;101568.45;3515827;78;21026;-90
2022/10/12 18:55:17;;;;;;;26.05;17.15;;;;;;;8.68;75.38;101575.06;3503888;77;21027;-89
2022/10/12 19:00:09;;;;;;;31.60;19.55;;;;;;;8.57;75.29;101578.12;3532553;78;22110;-89
2022/10/12 19:05:00;;;;;;;25.82;17.02;;;;;;;8.48;75.48;101579.48;3566765;78;21001;-90
2022/10/12 19:09:52;;;;;;;19.95;15.05;;;;;;;8.39;75.65;101580.84;3504772;78;21010;-90
2022/10/12 19:14:44;;;;;;;24.07;15.95;;;;;;;8.27;75.69;101581.64;3537528;78;20963;-90
2022/10/12 19:19:35;;;;;;;19.00;14.68;;;;;;;8.17;75.36;101583.38;3569978;77;20891;-90
2022/10/12 19:24:26;;;;;;;19.60;13.95;;;;;;;8.01;75.38;101584.07;3558111;77;21606;-90
2022/10/12 19:29:17;;;;;;;12.60;10.10;;;;;;;7.91;75.63;101584.92;3608203;77;20999;-92
2022/10/12 19:34:12;;;;;;;20.62;13.03;;;;;;;7.82;75.70;101582.83;3541825;77;20939;-92
2022/10/12 19:39:09;;;;;;;14.40;11.57;;;;;;;7.57;75.52;101586.08;3543374;77;20962;-92
2022/10/12 19:44:01;;;;;;;12.82;9.60;;;;;;;7.57;75.52;101586.08;3553839;77;20943;-91
2022/10/12 19:48:55;;;;;;;14.43;8.10;;;;;;;7.49;75.50;101594.78;3562268;77;21075;-93
2022/10/12 19:53:47;;;;;;;17.02;9.78;;;;;;;7.33;75.27;101592.34;3579645;77;20957;-92
2022/10/12 19:58:40;;;;;;;15.48;9.95;;;;;;;7.21;75.40;101599.17;3568813;77;21232;-92
2022/10/12 20:03:32;;;;;;;15.13;9.85;;;;;;;7.14;75.64;101598.00;3575985;77;21160;-92
2022/10/12 20:08:23;;;;;;;15.45;11.28;;;;;;;7.04;75.42;101600.98;3558641;77;21406;-91
2022/10/12 20:13:15;;;;;;;16.23;10.75;;;;;;;6.92;75.42;101595.25;3551670;77;21500;-93
2022/10/12 20:18:06;;;;;;;20.00;13.05;;;;;;;6.80;75.50;101593.00;3600332;77;21009;-94
2022/10/12 20:22:57;;;;;;;19.73;12.88;;;;;;;6.72;75.48;101592.63;3574423;77;20913;-93
2022/10/12 20:27:49;;;;;;;18.07;11.78;;;;;;;6.64;75.44;101592.27;3574294;77;20990;-92
2022/10/12 20:32:40;;;;;;;21.52;12.10;;;;;;;6.59;75.68;101591.17;3585809;77;21445;-92
2022/10/12 20:37:33;;;;;;;18.55;11.93;;;;;;;6.49;75.39;101600.20;3599234;77;22013;-93
2022/10/12 20:42:24;;;;;;;16.60;12.35;;;;;;;6.37;75.28;101597.02;3604179;77;21428;-90
2022/10/12 20:47:17;;;;;;;19.50;11.73;;;;;;;6.27;75.30;101598.67;3573591;77;20968;-90
2022/10/12 20:52:09;;;;;;;21.70;14.98;;;;;;;6.20;75.07;101598.77;3622276;77;20931;-90
2022/10/12 20:57:02;;;;;;;21.75;12.30;;;;;;;6.09;75.46;101602.13;3595872;77;21408;-90
2022/10/12 21:01:53;;;;;;;22.70;12.95;;;;;;;6.07;75.48;101604.16;3573070;77;22728;-90
2022/10/12 21:06:45;;;;;;;19.45;13.22;;;;;;;5.96;75.31;101608.80;3474694;77;21564;-90
2022/10/12 21:11:37;;;;;;;15.85;12.95;;;;;;;5.92;75.63;101613.30;3560900;77;21073;-90
2022/10/12 21:16:28;;;;;;;20.82;13.85;;;;;;;5.83;75.27;101609.84;3582745;77;20974;-90
2022/10/12 21:21:22;;;;;;;20.68;14.40;;;;;;;5.72;75.55;101610.97;3526922;77;21415;-90
2022/10/12 21:26:17;;;;;;;23.57;14.35;;;;;;;5.67;75.53;101600.81;3606240;78;21426;-90
2022/10/12 21:31:10;;;;;;;18.52;12.03;;;;;;;5.62;75.46;101607.05;3576505;77;21505;-90
2022/10/12 21:36:22;;;;;;;19.87;13.13;;;;;;;5.55;75.35;101604.97;3566383;77;20939;-90
2022/10/12 21:41:15;;;;;;;18.50;12.82;;;;;;;5.46;75.44;101609.66;3582818;77;20935;-90
2022/10/12 21:46:13;;;;;;;22.32;13.62;;;;;;;5.41;75.56;101616.26;3597545;77;21454;-90
2022/10/12 21:51:05;;;;;;;20.57;13.48;;;;;;;5.31;75.63;101618.74;3616676;77;21315;-89
2022/10/12 21:56:01;;;;;;;23.32;14.83;;;;;;;5.22;75.45;101612.69;3589944;77;20997;-89
2022/10/12 22:00:52;;;;;;;20.57;14.20;;;;;;;5.17;75.41;101611.59;3611665;77;21458;-90
2022/10/12 22:05:44;;;;;;;17.73;14.75;;;;;;;5.13;75.14;101613.12;3614247;77;21073;-90
2022/10/12 22:10:37;;;;;;;26.42;18.15;;;;;;;5.05;75.17;101612.22;3637582;77;21231;-90
2022/10/12 22:15:29;;;;;;;27.35;19.23;;;;;;;4.98;75.64;101613.98;3562171;77;21003;-90
2022/10/12 22:20:21;;;;;;;29.52;20.12;;;;;;;4.93;75.40;101610.73;3571539;77;20986;-90
2022/10/12 22:25:14;;;;;;;36.80;24.87;;;;;;;4.86;75.37;101615.48;3580099;77;20994;-90
2022/10/12 22:30:07;;;;;;;37.23;25.95;;;;;;;4.77;75.48;101610.70;3553003;77;20982;-89
2022/10/12 22:34:58;;;;;;;36.03;23.62;;;;;;;4.68;75.45;101607.63;3537880;77;20946;-91
2022/10/12 22:39:49;;;;;;;30.90;21.62;;;;;;;4.64;75.65;101613.43;3570949;77;21447;-90
2022/10/12 22:44:40;;;;;;;28.90;20.85;;;;;;;4.58;75.61;101604.55;3553063;77;21288;-90